Time;durP1;ratioP1;P1;durP2;ratioP2;P2;SDS_P1;SDS_P2;PMS_P1;PMS_P2;Temp;Humidity;BMP_temperature;BMP_pressure;BME280_temperature;BME280_humidity;BME280_pressure;Samples;Min_cycle;Max_cycle;Signal;HPM_P1;HPM_P2
2022/10/08 00:00:54;;;;;;;;;8.25;8.00;;;;;;;;5049693;28;45323;-75
2022/10/08 00:03:20;;;;;;;;;9.00;7.00;;;;;;;;5056304;28;45449;-75
2022/10/08 00:06:03;;;;;;;;;8.25;6.75;;;;;;;;5051696;28;45688;-74
2022/10/08 00:08:29;;;;;;;;;12.25;7.75;;;;;;;;5058174;28;45383;-74
2022/10/08 00:10:55;;;;;;;;;41.50;32.25;;;;;;;;5054301;28;45358;-74
2022/10/08 00:13:21;;;;;;;;;23.75;21.25;;;;;;;;5089159;27;45379;-74
2022/10/08 00:15:47;;;;;;;;;14.50;14.50;;;;;;;;5055843;28;46223;-74
2022/10/08 00:18:12;;;;;;;;;14.50;11.25;;;;;;;;5053534;28;46282;-74
2022/10/08 00:20:37;;;;;;;;;7.75;7.00;;;;;;;;5058724;28;45421;-73
2022/10/08 00:23:02;;;;;;;;;7.00;7.00;;;;;;;;5055777;28;45370;-74
2022/10/08 00:25:28;;;;;;;;;7.50;7.50;;;;;;;;5054163;28;45248;-74
2022/10/08 00:27:53;;;;;;;;;8.00;7.00;;;;;;;;5048271;28;45207;-74
2022/10/08 00:30:18;;;;;;;;;10.00;6.75;;;;;;;;5044697;28;45202;-74
2022/10/08 00:32:43;;;;;;;;;5.50;5.50;;;;;;;;5058398;28;45402;-74
2022/10/08 00:35:09;;;;;;;;;6.00;4.25;;;;;;;;5053072;28;45371;-74
2022/10/08 00:37:34;;;;;;;;;7.00;6.00;;;;;;;;5057568;28;45469;-74
2022/10/08 00:39:59;;;;;;;;;5.00;5.00;;;;;;;;5052378;28;45152;-74
2022/10/08 00:42:25;;;;;;;;;7.50;4.50;;;;;;;;5047022;28;45450;-74
2022/10/08 00:44:55;;;;;;;;;8.25;6.00;;;;;;;;5056005;28;45584;-74
2022/10/08 00:47:30;;;;;;;;;7.00;6.00;;;;;;;;5051032;28;47439;-74
2022/10/08 00:49:57;;;;;;;;;6.00;5.50;;;;;;;;5053380;28;45382;-74
2022/10/08 00:52:24;;;;;;;;;7.75;5.50;;;;;;;;5081310;27;45359;-74
2022/10/08 00:54:50;;;;;;;;;8.00;7.00;;;;;;;;5059721;28;47141;-74
2022/10/08 00:57:16;;;;;;;;;5.00;4.50;;;;;;;;5055257;28;46334;-74
2022/10/08 00:59:41;;;;;;;;;6.00;5.75;;;;;;;;5050398;28;45394;-74
2022/10/08 01:02:09;;;;;;;;;4.50;4.25;;;;;;;;5050197;28;45392;-74
2022/10/08 01:04:36;;;;;;;;;4.75;4.50;;;;;;;;5059619;28;46030;-74
2022/10/08 01:07:08;;;;;;;;;5.00;5.00;;;;;;;;5054496;28;47240;-74
2022/10/08 01:10:06;;;;;;;;;6.00;5.25;;;;;;;;5051340;28;45334;-76
2022/10/08 01:12:50;;;;;;;;;9.50;6.50;;;;;;;;5043455;28;45466;-74
2022/10/08 01:15:25;;;;;;;;;5.75;3.75;;;;;;;;5054021;28;45347;-74
2022/10/08 01:17:57;;;;;;;;;5.75;5.75;;;;;;;;5055578;28;45342;-74
2022/10/08 01:20:42;;;;;;;;;5.50;5.50;;;;;;;;5054883;28;45248;-74
2022/10/08 01:23:13;;;;;;;;;6.75;5.00;;;;;;;;5090441;27;45212;-74
2022/10/08 01:25:55;;;;;;;;;7.75;7.75;;;;;;;;5058268;28;45597;-74
2022/10/08 01:28:23;;;;;;;;;9.75;7.00;;;;;;;;5071607;28;45389;-74
2022/10/08 01:30:53;;;;;;;;;5.00;5.00;;;;;;;;5057194;28;45444;-74
2022/10/08 01:33:21;;;;;;;;;8.00;5.50;;;;;;;;5060492;28;45360;-74
2022/10/08 01:35:49;;;;;;;;;6.25;6.25;;;;;;;;5056596;28;45732;-74
2022/10/08 01:38:17;;;;;;;;;8.75;8.75;;;;;;;;5047325;28;46130;-74
2022/10/08 01:40:43;;;;;;;;;10.75;7.50;;;;;;;;5053120;28;45411;-75
2022/10/08 01:43:11;;;;;;;;;13.75;10.00;;;;;;;;5050767;28;45439;-74
2022/10/08 01:45:39;;;;;;;;;12.00;12.00;;;;;;;;5052414;28;44872;-74
2022/10/08 01:48:07;;;;;;;;;15.75;12.00;;;;;;;;5052079;28;45353;-74
2022/10/08 01:50:37;;;;;;;;;20.50;16.50;;;;;;;;5058376;28;45422;-74
2022/10/08 01:53:05;;;;;;;;;19.75;19.50;;;;;;;;5052134;28;45413;-74
2022/10/08 01:55:33;;;;;;;;;23.50;20.50;;;;;;;;5047207;28;45458;-73
2022/10/08 01:58:01;;;;;;;;;21.25;18.50;;;;;;;;5051610;28;46462;-73
2022/10/08 02:00:26;;;;;;;;;13.00;12.50;;;;;;;;5060557;28;45304;-73
2022/10/08 02:02:53;;;;;;;;;9.25;9.25;;;;;;;;5068892;28;44733;-73
2022/10/08 02:05:18;;;;;;;;;5.50;4.00;;;;;;;;5055022;28;47320;-73
2022/10/08 02:07:44;;;;;;;;;8.00;6.25;;;;;;;;5054671;28;45489;-73
2022/10/08 02:10:13;;;;;;;;;7.25;5.50;;;;;;;;5056869;28;45331;-74
2022/10/08 02:12:39;;;;;;;;;6.25;5.00;;;;;;;;5056550;28;47291;-74
2022/10/08 02:15:05;;;;;;;;;7.50;6.00;;;;;;;;5050869;28;45410;-74
2022/10/08 02:17:49;;;;;;;;;8.75;7.25;;;;;;;;5057254;28;46487;-74
2022/10/08 02:20:19;;;;;;;;;5.25;5.25;;;;;;;;5057591;28;45423;-74
2022/10/08 02:22:50;;;;;;;;;2.25;2.00;;;;;;;;5052171;28;45260;-74
2022/10/08 02:25:30;;;;;;;;;6.25;5.50;;;;;;;;5052801;28;45265;-74
2022/10/08 02:27:55;;;;;;;;;8.00;7.00;;;;;;;;5053847;28;46573;-74
2022/10/08 02:30:21;;;;;;;;;12.50;12.50;;;;;;;;5042104;28;45264;-74
2022/10/08 02:32:47;;;;;;;;;10.50;10.50;;;;;;;;5056159;28;45492;-73
2022/10/08 02:35:17;;;;;;;;;8.00;6.00;;;;;;;;5052245;28;44808;-73
2022/10/08 02:38:02;;;;;;;;;4.75;4.75;;;;;;;;5055479;28;47187;-73
2022/10/08 02:40:29;;;;;;;;;8.00;5.00;;;;;;;;5044433;28;45304;-73
2022/10/08 02:43:06;;;;;;;;;3.50;3.50;;;;;;;;5091992;27;45417;-74
2022/10/08 02:45:35;;;;;;;;;5.00;5.00;;;;;;;;5083767;27;45318;-75
2022/10/08 02:48:04;;;;;;;;;5.00;5.00;;;;;;;;5089719;27;45447;-75
2022/10/08 02:50:31;;;;;;;;;7.00;5.75;;;;;;;;5086494;27;45463;-74
2022/10/08 02:52:57;;;;;;;;;9.25;6.75;;;;;;;;5091918;27;45168;-75
2022/10/08 02:55:29;;;;;;;;;5.50;4.75;;;;;;;;5088816;27;45354;-74
2022/10/08 02:57:59;;;;;;;;;3.50;2.75;;;;;;;;5093629;27;45412;-74
2022/10/08 03:00:30;;;;;;;;;4.50;3.75;;;;;;;;5093875;27;45496;-74
2022/10/08 03:02:57;;;;;;;;;6.75;5.50;;;;;;;;5099112;27;46368;-74
2022/10/08 03:05:23;;;;;;;;;4.00;2.25;;;;;;;;5081723;27;45511;-74
2022/10/08 03:07:50;;;;;;;;;7.50;5.00;;;;;;;;5095189;27;45409;-74
2022/10/08 03:10:15;;;;;;;;;5.00;5.00;;;;;;;;5084838;27;45294;-74
2022/10/08 03:12:41;;;;;;;;;7.00;4.75;;;;;;;;5090326;27;46676;-74
2022/10/08 03:15:10;;;;;;;;;4.25;4.25;;;;;;;;5092311;27;45485;-74
2022/10/08 03:17:38;;;;;;;;;5.25;5.00;;;;;;;;5094291;27;45360;-74
2022/10/08 03:20:05;;;;;;;;;5.50;5.00;;;;;;;;5091987;27;45419;-74
2022/10/08 03:22:30;;;;;;;;;3.00;3.00;;;;;;;;5091049;27;45659;-74
2022/10/08 03:24:55;;;;;;;;;5.50;3.75;;;;;;;;5081922;27;45366;-74
2022/10/08 03:27:21;;;;;;;;;6.25;4.00;;;;;;;;5090779;27;45255;-74
2022/10/08 03:29:46;;;;;;;;;4.25;3.50;;;;;;;;5085843;27;45481;-75
2022/10/08 03:32:11;;;;;;;;;5.00;5.00;;;;;;;;5089964;27;46227;-74
2022/10/08 03:34:36;;;;;;;;;3.75;3.00;;;;;;;;5091308;27;45309;-74
2022/10/08 03:37:02;;;;;;;;;5.50;3.00;;;;;;;;5085434;27;46205;-74
2022/10/08 03:39:27;;;;;;;;;7.75;5.00;;;;;;;;5085393;27;45272;-74
2022/10/08 03:41:52;;;;;;;;;7.25;5.75;;;;;;;;5088010;27;45574;-74
2022/10/08 03:44:17;;;;;;;;;8.75;5.75;;;;;;;;5087429;27;45454;-74
2022/10/08 03:46:42;;;;;;;;;3.50;3.50;;;;;;;;5091694;27;45245;-74
2022/10/08 03:49:08;;;;;;;;;6.50;4.00;;;;;;;;5088801;27;45327;-74
2022/10/08 03:51:33;;;;;;;;;7.00;7.00;;;;;;;;5092466;27;46217;-74
2022/10/08 03:53:58;;;;;;;;;4.50;4.00;;;;;;;;5081569;27;45260;-75
2022/10/08 03:56:24;;;;;;;;;6.00;4.00;;;;;;;;5079477;28;45456;-73
2022/10/08 03:58:56;;;;;;;;;8.00;6.00;;;;;;;;5074162;27;45459;-73
2022/10/08 04:01:22;;;;;;;;;9.75;7.25;;;;;;;;5069114;28;45547;-72
2022/10/08 04:03:47;;;;;;;;;6.00;6.00;;;;;;;;5080935;27;45280;-73
2022/10/08 04:06:12;;;;;;;;;8.25;7.00;;;;;;;;5079510;28;45271;-73
2022/10/08 04:08:38;;;;;;;;;11.25;6.00;;;;;;;;5106901;27;46514;-73
2022/10/08 04:11:04;;;;;;;;;15.00;7.75;;;;;;;;5073070;28;45358;-73
2022/10/08 04:13:29;;;;;;;;;10.25;8.00;;;;;;;;5077243;28;45366;-73
2022/10/08 04:15:58;;;;;;;;;9.50;7.50;;;;;;;;5079847;28;45305;-74
2022/10/08 04:18:23;;;;;;;;;10.75;7.50;;;;;;;;5093410;27;46010;-75
2022/10/08 04:20:48;;;;;;;;;8.00;5.00;;;;;;;;5074391;27;46179;-75
2022/10/08 04:23:14;;;;;;;;;8.00;6.50;;;;;;;;5078415;28;45112;-76
2022/10/08 04:25:47;;;;;;;;;7.25;6.75;;;;;;;;5062188;28;45201;-76
2022/10/08 04:28:12;;;;;;;;;6.50;4.50;;;;;;;;5076695;28;45303;-77
2022/10/08 04:30:37;;;;;;;;;3.50;3.50;;;;;;;;5080123;28;45623;-76
2022/10/08 04:33:03;;;;;;;;;12.25;8.00;;;;;;;;5072006;28;45929;-76
2022/10/08 04:35:28;;;;;;;;;8.00;5.00;;;;;;;;5079767;28;45257;-76
2022/10/08 04:37:53;;;;;;;;;6.50;5.00;;;;;;;;5075420;27;45493;-77
2022/10/08 04:40:18;;;;;;;;;7.75;5.25;;;;;;;;5075681;27;45650;-76
2022/10/08 04:42:43;;;;;;;;;5.25;4.00;;;;;;;;5075724;28;45465;-76
2022/10/08 04:45:09;;;;;;;;;5.00;5.00;;;;;;;;5078926;27;45373;-76
2022/10/08 04:47:34;;;;;;;;;5.00;5.00;;;;;;;;5077791;28;45502;-76
2022/10/08 04:49:59;;;;;;;;;6.25;5.50;;;;;;;;5080529;27;45415;-76
2022/10/08 04:52:24;;;;;;;;;5.75;5.00;;;;;;;;5077069;27;45323;-76
2022/10/08 04:54:49;;;;;;;;;4.25;4.25;;;;;;;;5070535;28;45553;-76
2022/10/08 04:57:15;;;;;;;;;6.00;4.50;;;;;;;;5076007;28;45374;-72
2022/10/08 04:59:40;;;;;;;;;4.50;4.50;;;;;;;;5071359;28;45505;-73
2022/10/08 05:02:05;;;;;;;;;7.00;5.00;;;;;;;;5075498;28;46631;-77
2022/10/08 05:04:31;;;;;;;;;7.00;5.00;;;;;;;;5072728;28;45312;-76
2022/10/08 05:06:56;;;;;;;;;7.25;4.00;;;;;;;;5076216;28;44777;-76
2022/10/08 05:09:21;;;;;;;;;7.00;7.00;;;;;;;;5077458;28;46496;-77
2022/10/08 05:11:46;;;;;;;;;4.00;4.00;;;;;;;;5078999;28;45437;-76
2022/10/08 05:14:12;;;;;;;;;10.00;6.75;;;;;;;;5076867;27;45572;-76
2022/10/08 05:16:37;;;;;;;;;13.75;12.00;;;;;;;;5074027;27;45311;-76
2022/10/08 05:19:03;;;;;;;;;11.75;7.25;;;;;;;;5077073;28;48116;-77
2022/10/08 05:21:29;;;;;;;;;13.75;9.25;;;;;;;;5079374;27;45894;-76
2022/10/08 05:23:54;;;;;;;;;12.50;8.00;;;;;;;;5085017;27;45369;-75
2022/10/08 05:26:24;;;;;;;;;10.25;8.50;;;;;;;;5065404;28;45589;-75
2022/10/08 05:28:52;;;;;;;;;8.00;5.75;;;;;;;;5071195;28;45357;-75
2022/10/08 05:31:17;;;;;;;;;7.00;7.00;;;;;;;;5082402;27;45796;-75
2022/10/08 05:33:43;;;;;;;;;5.75;5.00;;;;;;;;5066455;28;45339;-76
2022/10/08 05:36:14;;;;;;;;;7.00;6.00;;;;;;;;5066348;28;45376;-76
2022/10/08 05:38:41;;;;;;;;;5.00;5.00;;;;;;;;5109396;27;46704;-76
2022/10/08 05:41:12;;;;;;;;;5.00;5.00;;;;;;;;5064892;28;45539;-76
2022/10/08 05:43:37;;;;;;;;;5.25;5.25;;;;;;;;5062719;28;45263;-76
2022/10/08 05:46:02;;;;;;;;;5.50;4.00;;;;;;;;5073958;28;46292;-76
2022/10/08 05:48:28;;;;;;;;;4.00;4.00;;;;;;;;5080431;27;47314;-76
2022/10/08 05:50:53;;;;;;;;;5.50;4.75;;;;;;;;5064893;28;45417;-76
2022/10/08 05:53:18;;;;;;;;;6.25;5.00;;;;;;;;5067089;28;45294;-76
2022/10/08 05:55:43;;;;;;;;;4.00;4.00;;;;;;;;5062228;28;45202;-76
2022/10/08 05:58:08;;;;;;;;;4.25;2.00;;;;;;;;5070047;28;45433;-77
2022/10/08 06:00:34;;;;;;;;;5.00;4.00;;;;;;;;5066835;28;45507;-77
2022/10/08 06:02:59;;;;;;;;;3.75;3.00;;;;;;;;5063742;28;45651;-76
2022/10/08 06:05:24;;;;;;;;;2.00;2.00;;;;;;;;5060198;28;45443;-77
2022/10/08 06:07:51;;;;;;;;;5.00;4.00;;;;;;;;5066520;28;45541;-78
2022/10/08 06:10:16;;;;;;;;;4.25;4.00;;;;;;;;5060619;28;45276;-77
2022/10/08 06:12:42;;;;;;;;;6.00;4.00;;;;;;;;5068500;28;45347;-76
2022/10/08 06:15:07;;;;;;;;;4.00;4.00;;;;;;;;5073756;28;45366;-75
2022/10/08 06:17:32;;;;;;;;;4.25;4.00;;;;;;;;5092275;27;46858;-76
2022/10/08 06:19:57;;;;;;;;;5.75;4.00;;;;;;;;5075329;28;45387;-76
2022/10/08 06:22:23;;;;;;;;;4.00;4.00;;;;;;;;5076998;28;45407;-75
2022/10/08 06:24:48;;;;;;;;;4.50;2.25;;;;;;;;5076410;27;45362;-75
2022/10/08 06:27:13;;;;;;;;;4.25;4.25;;;;;;;;5077277;28;47456;-76
2022/10/08 06:29:38;;;;;;;;;8.50;7.00;;;;;;;;5073991;28;45334;-76
2022/10/08 06:32:03;;;;;;;;;5.25;5.25;;;;;;;;5071961;28;45568;-76
2022/10/08 06:34:29;;;;;;;;;6.75;5.75;;;;;;;;5076869;28;47258;-76
2022/10/08 06:36:54;;;;;;;;;6.00;6.00;;;;;;;;5076815;27;45534;-76
2022/10/08 06:39:19;;;;;;;;;7.00;6.50;;;;;;;;5077089;27;45381;-74
2022/10/08 06:41:44;;;;;;;;;8.25;7.25;;;;;;;;5066527;28;45370;-75
2022/10/08 06:44:12;;;;;;;;;9.75;5.25;;;;;;;;5097952;27;46205;-75
2022/10/08 06:46:37;;;;;;;;;5.25;5.00;;;;;;;;5063958;28;46443;-75
2022/10/08 06:49:02;;;;;;;;;4.75;4.75;;;;;;;;5069498;28;45728;-75
2022/10/08 06:51:28;;;;;;;;;7.75;6.25;;;;;;;;5082374;27;45379;-75
2022/10/08 06:53:55;;;;;;;;;7.00;7.00;;;;;;;;5076384;28;45757;-75
2022/10/08 06:56:21;;;;;;;;;6.00;5.75;;;;;;;;5070609;28;46129;-75
2022/10/08 06:58:47;;;;;;;;;4.50;4.50;;;;;;;;5076983;28;45537;-75
2022/10/08 07:01:12;;;;;;;;;5.75;5.75;;;;;;;;5073988;28;45777;-75
2022/10/08 07:03:37;;;;;;;;;6.75;6.75;;;;;;;;5073685;27;45537;-75
2022/10/08 07:06:03;;;;;;;;;7.00;5.00;;;;;;;;5075901;28;45284;-75
2022/10/08 07:08:29;;;;;;;;;6.00;6.00;;;;;;;;5075998;28;45390;-75
2022/10/08 07:10:54;;;;;;;;;6.00;4.25;;;;;;;;5077667;27;45459;-75
2022/10/08 07:13:20;;;;;;;;;5.75;4.00;;;;;;;;5073217;28;45458;-75
2022/10/08 07:15:45;;;;;;;;;5.50;4.75;;;;;;;;5074348;28;45204;-75
2022/10/08 07:18:11;;;;;;;;;6.00;5.00;;;;;;;;5072723;28;44755;-75
2022/10/08 07:20:37;;;;;;;;;9.75;6.00;;;;;;;;5091987;27;45346;-75
2022/10/08 07:23:02;;;;;;;;;4.25;4.25;;;;;;;;5076507;27;45297;-75
2022/10/08 07:25:27;;;;;;;;;12.00;5.00;;;;;;;;5070172;28;46254;-75
2022/10/08 07:27:53;;;;;;;;;7.00;5.75;;;;;;;;5075040;28;45110;-75
2022/10/08 07:30:18;;;;;;;;;9.50;7.50;;;;;;;;5064790;28;45422;-75
2022/10/08 07:32:43;;;;;;;;;6.75;5.25;;;;;;;;5077632;28;45274;-75
2022/10/08 07:35:08;;;;;;;;;8.25;4.75;;;;;;;;5100739;27;47170;-75
2022/10/08 07:37:34;;;;;;;;;8.00;6.25;;;;;;;;5074029;28;44789;-75
2022/10/08 07:39:59;;;;;;;;;9.25;8.50;;;;;;;;5072702;28;45171;-75
2022/10/08 07:42:24;;;;;;;;;9.25;8.00;;;;;;;;5075919;28;45477;-75
2022/10/08 07:44:49;;;;;;;;;12.75;9.50;;;;;;;;5080154;28;46815;-77
2022/10/08 07:47:14;;;;;;;;;9.75;7.00;;;;;;;;5071346;27;45307;-75
2022/10/08 07:49:40;;;;;;;;;17.25;9.25;;;;;;;;5093739;27;45231;-76
2022/10/08 07:52:06;;;;;;;;;9.00;9.00;;;;;;;;5076036;28;45335;-76
2022/10/08 07:54:32;;;;;;;;;8.75;7.00;;;;;;;;5079950;27;46560;-76
2022/10/08 07:56:57;;;;;;;;;7.00;7.00;;;;;;;;5077267;28;45364;-75
2022/10/08 07:59:22;;;;;;;;;10.75;7.00;;;;;;;;5075352;28;45503;-76
2022/10/08 08:01:47;;;;;;;;;7.75;7.75;;;;;;;;5078984;27;45497;-75
2022/10/08 08:04:13;;;;;;;;;11.75;8.50;;;;;;;;5078971;27;45345;-75
2022/10/08 08:06:40;;;;;;;;;17.50;13.75;;;;;;;;5109401;27;45337;-76
2022/10/08 08:09:05;;;;;;;;;16.50;16.50;;;;;;;;5080717;27;45262;-77
2022/10/08 08:11:30;;;;;;;;;11.25;9.75;;;;;;;;5071804;27;45288;-75
2022/10/08 08:13:56;;;;;;;;;16.50;14.00;;;;;;;;5077796;27;46108;-75
2022/10/08 08:16:24;;;;;;;;;17.25;14.00;;;;;;;;5094627;27;45734;-76
2022/10/08 08:18:50;;;;;;;;;18.50;17.50;;;;;;;;5075216;27;45443;-75
2022/10/08 08:21:17;;;;;;;;;13.75;12.00;;;;;;;;5093863;27;45517;-75
2022/10/08 08:23:44;;;;;;;;;30.25;25.00;;;;;;;;5095623;27;47119;-76
2022/10/08 08:26:31;;;;;;;;;12.00;11.00;;;;;;;;5073353;28;45410;-75
2022/10/08 08:28:58;;;;;;;;;12.00;10.50;;;;;;;;5079920;27;45243;-76
2022/10/08 08:31:28;;;;;;;;;13.50;12.25;;;;;;;;5079595;27;45399;-75
2022/10/08 08:33:54;;;;;;;;;13.25;9.75;;;;;;;;5071789;27;45328;-75
2022/10/08 08:36:23;;;;;;;;;18.00;13.75;;;;;;;;5079111;27;45350;-75
2022/10/08 08:38:48;;;;;;;;;10.25;8.75;;;;;;;;5079121;28;45548;-76
2022/10/08 08:41:13;;;;;;;;;10.50;10.50;;;;;;;;5077872;28;45833;-76
2022/10/08 08:43:38;;;;;;;;;12.50;10.25;;;;;;;;5078507;28;47251;-76
2022/10/08 08:46:04;;;;;;;;;14.00;9.67;;;;;;;;5077214;28;45304;-75
2022/10/08 08:48:32;;;;;;;;;12.00;9.33;;;;;;;;5080181;27;45233;-75
2022/10/08 08:50:58;;;;;;;;;10.67;8.00;;;;;;;;5079191;27;45476;-76
2022/10/08 08:53:24;;;;;;;;;6.00;4.67;;;;;;;;5079539;27;46390;-75
2022/10/08 08:55:51;;;;;;;;;8.00;6.00;;;;;;;;5079071;27;45444;-75
2022/10/08 08:58:35;;;;;;;;;9.00;5.33;;;;;;;;5079405;27;45254;-76
2022/10/08 09:01:20;;;;;;;;;5.00;5.00;;;;;;;;5067918;28;45287;-76
2022/10/08 09:03:46;;;;;;;;;5.00;3.67;;;;;;;;5065812;28;46377;-75
2022/10/08 09:06:13;;;;;;;;;6.33;6.33;;;;;;;;5080448;27;45543;-76
2022/10/08 09:08:44;;;;;;;;;5.00;5.00;;;;;;;;5073095;27;45216;-74
2022/10/08 09:11:11;;;;;;;;;8.67;4.33;;;;;;;;5075810;27;45484;-75
2022/10/08 09:13:43;;;;;;;;;4.00;4.00;;;;;;;;5071697;28;45442;-76
2022/10/08 09:16:12;;;;;;;;;8.33;5.00;;;;;;;;5076108;28;45455;-76
2022/10/08 09:18:45;;;;;;;;;7.00;6.00;;;;;;;;5079710;27;45357;-76
2022/10/08 09:21:10;;;;;;;;;4.33;3.00;;;;;;;;5078883;27;45333;-75
2022/10/08 09:23:35;;;;;;;;;4.00;4.00;;;;;;;;5072982;28;46356;-76
2022/10/08 09:26:03;;;;;;;;;6.00;4.00;;;;;;;;5065294;28;45272;-76
2022/10/08 09:28:41;;;;;;;;;5.00;3.00;;;;;;;;5074845;27;45233;-76
2022/10/08 09:31:25;;;;;;;;;7.00;6.00;;;;;;;;5076011;28;45422;-76
2022/10/08 09:33:56;;;;;;;;;3.67;3.67;;;;;;;;5078889;28;45237;-76
2022/10/08 09:36:32;;;;;;;;;4.00;4.00;;;;;;;;5078249;27;45437;-76
2022/10/08 09:38:58;;;;;;;;;8.00;5.00;;;;;;;;5078917;27;45386;-76
2022/10/08 09:41:27;;;;;;;;;3.67;2.00;;;;;;;;5076560;27;46076;-76
2022/10/08 09:44:10;;;;;;;;;10.00;8.67;;;;;;;;5074992;27;45345;-76
2022/10/08 09:46:35;;;;;;;;;4.00;3.67;;;;;;;;5067387;28;45515;-77
2022/10/08 09:49:21;;;;;;;;;4.00;1.00;;;;;;;;5078839;28;45501;-76
2022/10/08 09:51:48;;;;;;;;;9.33;5.67;;;;;;;;5064103;28;46413;-76
2022/10/08 09:54:15;;;;;;;;;11.00;9.33;;;;;;;;5076801;27;46882;-76
2022/10/08 09:56:41;;;;;;;;;5.67;4.00;;;;;;;;5077781;27;45491;-76
2022/10/08 09:59:11;;;;;;;;;7.67;6.33;;;;;;;;5076073;27;45701;-77
2022/10/08 10:01:43;;;;;;;;;6.00;4.00;;;;;;;;5076944;28;45486;-76
2022/10/08 10:04:16;;;;;;;;;5.67;2.67;;;;;;;;5071292;28;45417;-76
2022/10/08 10:06:44;;;;;;;;;5.33;4.00;;;;;;;;5089631;27;45373;-76
2022/10/08 10:09:10;;;;;;;;;4.33;3.67;;;;;;;;5071590;28;45559;-76
2022/10/08 10:11:42;;;;;;;;;4.00;3.00;;;;;;;;5074695;27;45209;-75
2022/10/08 10:14:34;;;;;;;;;4.33;2.67;;;;;;;;5081414;27;46741;-76
2022/10/08 10:17:12;;;;;;;;;3.00;2.33;;;;;;;;5064204;28;45573;-76
2022/10/08 10:19:45;;;;;;;;;1.00;1.00;;;;;;;;5067326;28;45326;-76
2022/10/08 10:22:12;;;;;;;;;2.67;1.67;;;;;;;;5074795;27;45345;-78
2022/10/08 10:24:49;;;;;;;;;3.00;1.00;;;;;;;;5068551;28;45412;-77
2022/10/08 10:27:19;;;;;;;;;0.67;0.67;;;;;;;;5075898;27;45227;-78
2022/10/08 10:29:53;;;;;;;;;0.67;0.67;;;;;;;;5072284;28;45304;-77
2022/10/08 10:32:28;;;;;;;;;3.67;1.67;;;;;;;;5073423;28;45738;-77
2022/10/08 10:34:59;;;;;;;;;1.33;0.00;;;;;;;;5088789;27;45307;-78
2022/10/08 10:37:30;;;;;;;;;2.67;1.00;;;;;;;;5104448;27;45274;-77
2022/10/08 10:40:18;;;;;;;;;1.00;1.00;;;;;;;;5078724;28;45361;-78
2022/10/08 10:43:02;;;;;;;;;2.00;0.67;;;;;;;;5068690;28;46451;-78
2022/10/08 10:45:30;;;;;;;;;3.00;1.00;;;;;;;;5067165;28;45227;-78
2022/10/08 10:47:56;;;;;;;;;46.67;33.33;;;;;;;;5076179;28;45469;-80
2022/10/08 10:50:34;;;;;;;;;3.00;3.00;;;;;;;;5068994;28;45351;-79
2022/10/08 10:53:20;;;;;;;;;3.00;1.33;;;;;;;;5075454;27;45383;-78
2022/10/08 10:55:56;;;;;;;;;5.00;2.00;;;;;;;;5074030;27;45482;-75
2022/10/08 10:58:28;;;;;;;;;2.67;1.00;;;;;;;;5075989;28;45340;-78
2022/10/08 11:00:53;;;;;;;;;0.00;0.00;;;;;;;;5074622;28;45322;-77
2022/10/08 11:03:19;;;;;;;;;1.00;1.00;;;;;;;;5072502;28;45296;-77
2022/10/08 11:05:46;;;;;;;;;3.50;2.25;;;;;;;;5066837;28;45612;-76
2022/10/08 11:08:30;;;;;;;;;0.75;0.75;;;;;;;;5081255;27;45397;-78
2022/10/08 11:10:55;;;;;;;;;4.00;0.33;;;;;;;;5065346;28;45388;-78
2022/10/08 11:13:58;;;;;;;;;0.00;0.00;;;;;;;;5074233;28;45347;-78
2022/10/08 11:16:42;;;;;;;;;0.25;0.25;;;;;;;;5018534;28;46359;-80
2022/10/08 11:19:19;;;;;;;;;1.00;0.25;;;;;;;;4989038;28;45355;-79
2022/10/08 11:21:57;;;;;;;;;0.00;0.00;;;;;;;;5054925;27;45495;-79
2022/10/08 11:24:33;;;;;;;;;0.75;0.75;;;;;;;;5069777;27;45402;-77
2022/10/08 11:27:24;;;;;;;;;0.25;0.25;;;;;;;;5072496;28;45937;-79
2022/10/08 11:30:11;;;;;;;;;4.50;1.50;;;;;;;;5073552;28;45323;-79
2022/10/08 11:32:36;;;;;;;;;2.25;1.00;;;;;;;;5077495;28;45458;-78
2022/10/08 11:35:11;;;;;;;;;1.00;0.00;;;;;;;;5079431;27;45214;-79
2022/10/08 11:37:47;;;;;;;;;1.00;1.00;;;;;;;;5079450;28;45557;-80
2022/10/08 11:40:18;;;;;;;;;0.50;0.50;;;;;;;;5071230;28;45262;-80
2022/10/08 11:42:47;;;;;;;;;3.25;0.75;;;;;;;;5092997;27;45482;-79
2022/10/08 11:45:13;;;;;;;;;2.25;1.25;;;;;;;;5072037;28;45312;-79
2022/10/08 11:47:38;;;;;;;;;3.25;1.00;;;;;;;;5075893;28;45536;-79
2022/10/08 11:50:04;;;;;;;;;0.25;0.25;;;;;;;;5093478;27;45751;-79
2022/10/08 11:52:30;;;;;;;;;0.50;0.50;;;;;;;;5078670;28;45500;-80
2022/10/08 11:54:56;;;;;;;;;0.00;0.00;;;;;;;;5080243;28;45487;-80
2022/10/08 11:57:34;;;;;;;;;0.00;0.00;;;;;;;;5079913;27;45534;-79
2022/10/08 12:00:25;;;;;;;;;0.00;0.00;;;;;;;;5070972;27;45541;-79
2022/10/08 12:02:52;;;;;;;;;0.00;0.00;;;;;;;;5059004;28;45622;-79
2022/10/08 12:05:23;;;;;;;;;0.50;0.50;;;;;;;;5077621;28;45401;-79
2022/10/08 12:07:50;;;;;;;;;0.50;0.50;;;;;;;;5077751;28;46224;-79
2022/10/08 12:10:28;;;;;;;;;1.00;0.00;;;;;;;;5078452;27;45306;-79
2022/10/08 12:12:55;;;;;;;;;1.25;1.00;;;;;;;;5078998;28;45400;-79
2022/10/08 12:15:23;;;;;;;;;3.00;1.50;;;;;;;;5072638;27;45789;-78
2022/10/08 12:17:54;;;;;;;;;1.00;1.00;;;;;;;;5076415;28;45440;-79
2022/10/08 12:20:21;;;;;;;;;1.00;1.00;;;;;;;;5066768;27;45386;-78
2022/10/08 12:23:05;;;;;;;;;0.50;0.50;;;;;;;;5071290;27;45433;-79
2022/10/08 12:25:30;;;;;;;;;3.50;3.00;;;;;;;;5068216;28;45347;-79
2022/10/08 12:28:34;;;;;;;;;1.75;1.00;;;;;;;;5071451;28;46446;-79
2022/10/08 12:31:02;;;;;;;;;1.40;0.40;;;;;;;;5037424;28;45467;-79
2022/10/08 12:33:28;;;;;;;;;1.25;0.00;;;;;;;;5067348;27;45477;-79
2022/10/08 12:35:59;;;;;;;;;2.75;1.00;;;;;;;;5076837;27;45534;-79
2022/10/08 12:38:24;;;;;;;;;1.00;1.00;;;;;;;;5076371;27;45485;-79
2022/10/08 12:40:59;;;;;;;;;2.00;1.75;;;;;;;;5073741;27;46676;-79
2022/10/08 12:43:30;;;;;;;;;2.00;2.00;;;;;;;;5078977;28;45491;-79
2022/10/08 12:46:00;;;;;;;;;2.00;2.00;;;;;;;;5075963;27;45577;-78
2022/10/08 12:48:34;;;;;;;;;1.00;1.00;;;;;;;;5078799;28;45395;-79
2022/10/08 12:50:59;;;;;;;;;3.50;2.00;;;;;;;;5078968;27;45276;-78
2022/10/08 12:53:24;;;;;;;;;1.00;1.00;;;;;;;;5072434;27;45462;-78
2022/10/08 12:55:51;;;;;;;;;1.75;1.00;;;;;;;;5073461;28;45487;-78
2022/10/08 12:58:28;;;;;;;;;5.50;1.50;;;;;;;;5075217;28;45427;-78
2022/10/08 13:00:58;;;;;;;;;1.00;1.00;;;;;;;;5065454;28;45779;-78
2022/10/08 13:03:24;;;;;;;;;2.00;0.75;;;;;;;;5080970;27;45296;-78
2022/10/08 13:05:50;;;;;;;;;1.00;1.00;;;;;;;;5079069;27;45465;-79
2022/10/08 13:08:35;;;;;;;;;3.50;2.00;;;;;;;;5107539;27;47334;-79
2022/10/08 13:11:03;;;;;;;;;1.25;0.75;;;;;;;;5076807;27;45543;-77
2022/10/08 13:13:30;;;;;;;;;1.75;1.25;;;;;;;;5070246;27;45349;-78
2022/10/08 13:16:00;;;;;;;;;1.75;0.00;;;;;;;;5079139;27;45652;-77
2022/10/08 13:18:27;;;;;;;;;0.00;0.00;;;;;;;;5071992;28;45657;-77
2022/10/08 13:21:00;;;;;;;;;1.00;0.50;;;;;;;;5067519;27;45489;-78
2022/10/08 13:23:31;;;;;;;;;1.00;0.25;;;;;;;;5072384;27;45484;-79
2022/10/08 13:25:58;;;;;;;;;0.75;0.50;;;;;;;;5084747;27;45523;-76
2022/10/08 13:28:23;;;;;;;;;2.25;1.00;;;;;;;;5073736;28;45954;-77
2022/10/08 13:30:55;;;;;;;;;1.50;1.00;;;;;;;;5072653;27;45348;-78
2022/10/08 13:33:21;;;;;;;;;3.50;2.00;;;;;;;;5076111;27;45498;-76
2022/10/08 13:35:54;;;;;;;;;4.00;2.50;;;;;;;;5075167;28;45412;-76
2022/10/08 13:38:25;;;;;;;;;2.00;1.75;;;;;;;;5091497;27;47289;-76
2022/10/08 13:40:52;;;;;;;;;4.25;2.00;;;;;;;;5077779;27;46441;-76
2022/10/08 13:43:18;;;;;;;;;2.75;1.00;;;;;;;;5075882;28;45213;-75
2022/10/08 13:45:43;;;;;;;;;19.00;17.67;;;;;;;;5066108;27;45340;-75
2022/10/08 13:48:10;;;;;;;;;11.00;7.67;;;;;;;;5075342;28;45378;-75
2022/10/08 13:50:40;;;;;;;;;2.75;2.00;;;;;;;;5078014;28;45564;-75
2022/10/08 13:53:05;;;;;;;;;4.67;4.00;;;;;;;;5076258;28;45314;-75
2022/10/08 13:55:32;;;;;;;;;3.00;3.00;;;;;;;;5071245;28;45472;-75
2022/10/08 13:58:01;;;;;;;;;3.00;3.00;;;;;;;;5076073;27;46772;-75
2022/10/08 14:00:26;;;;;;;;;3.67;3.67;;;;;;;;5069175;28;45431;-76
2022/10/08 14:02:52;;;;;;;;;2.25;1.75;;;;;;;;5073893;27;45268;-76
2022/10/08 14:05:21;;;;;;;;;2.33;2.33;;;;;;;;5104514;27;46569;-76
2022/10/08 14:07:49;;;;;;;;;0.75;0.75;;;;;;;;5076016;28;46598;-75
2022/10/08 14:10:17;;;;;;;;;2.00;2.00;;;;;;;;5076557;28;45489;-76
2022/10/08 14:12:42;;;;;;;;;1.25;1.25;;;;;;;;5078209;27;45325;-75
2022/10/08 14:15:09;;;;;;;;;1.00;1.00;;;;;;;;5063335;27;45281;-75
2022/10/08 14:17:35;;;;;;;;;4.00;1.00;;;;;;;;5073733;28;45350;-76
2022/10/08 14:20:00;;;;;;;;;0.50;0.50;;;;;;;;5066820;28;45322;-76
2022/10/08 14:22:25;;;;;;;;;2.00;0.75;;;;;;;;5073193;28;45419;-76
2022/10/08 14:24:51;;;;;;;;;0.00;0.00;;;;;;;;5069049;28;45298;-76
2022/10/08 14:27:16;;;;;;;;;1.50;1.00;;;;;;;;5068964;27;45394;-75
2022/10/08 14:29:41;;;;;;;;;1.50;0.50;;;;;;;;5069308;28;45334;-75
2022/10/08 14:32:08;;;;;;;;;1.00;0.75;;;;;;;;5072599;27;45388;-78
2022/10/08 14:34:33;;;;;;;;;1.50;0.00;;;;;;;;5075540;28;45334;-77
2022/10/08 14:36:59;;;;;;;;;0.00;0.00;;;;;;;;5075526;28;45483;-77
2022/10/08 14:39:24;;;;;;;;;0.00;0.00;;;;;;;;5072227;28;45406;-77
2022/10/08 14:41:50;;;;;;;;;0.75;0.00;;;;;;;;5075867;27;45440;-77
2022/10/08 14:44:16;;;;;;;;;0.75;0.75;;;;;;;;5075533;28;45505;-77
2022/10/08 14:46:42;;;;;;;;;0.00;0.00;;;;;;;;5077570;28;47336;-78
2022/10/08 14:49:07;;;;;;;;;2.00;1.00;;;;;;;;5071514;28;45296;-78